sensor_id;sensor_type;location;lat;lon;timestamp;P1;durP1;ratioP1;P2;durP2;ratioP2
71108;SDS011;59614;51.012;-1.648;2023-05-07T00:01:49;67.32;;;8.98;;
71108;SDS011;59614;51.012;-1.648;2023-05-07T00:04:14;59.30;;;9.65;;
71108;SDS011;59614;51.012;-1.648;2023-05-07T00:06:39;170.27;;;10.82;;
71108;SDS011;59614;51.012;-1.648;2023-05-07T00:09:05;106.40;;;10.75;;
71108;SDS011;59614;51.012;-1.648;2023-05-07T00:11:31;36.92;;;7.82;;
71108;SDS011;59614;51.012;-1.648;2023-05-07T00:13:58;41.45;;;7.85;;
71108;SDS011;59614;51.012;-1.648;2023-05-07T00:16:23;127.75;;;9.38;;
71108;SDS011;59614;51.012;-1.648;2023-05-07T00:18:49;194.48;;;10.48;;
71108;SDS011;59614;51.012;-1.648;2023-05-07T00:21:14;41.25;;;7.97;;
71108;SDS011;59614;51.012;-1.648;2023-05-07T00:23:40;294.73;;;11.93;;
71108;SDS011;59614;51.012;-1.648;2023-05-07T00:26:05;37.72;;;7.50;;
71108;SDS011;59614;51.012;-1.648;2023-05-07T00:28:31;391.92;;;12.60;;
71108;SDS011;59614;51.012;-1.648;2023-05-07T00:30:56;291.02;;;12.30;;
71108;SDS011;59614;51.012;-1.648;2023-05-07T00:33:22;37.67;;;7.65;;
71108;SDS011;59614;51.012;-1.648;2023-05-07T00:35:47;40.13;;;7.82;;
71108;SDS011;59614;51.012;-1.648;2023-05-07T00:38:13;119.78;;;8.82;;
71108;SDS011;59614;51.012;-1.648;2023-05-07T00:40:39;92.57;;;8.40;;
71108;SDS011;59614;51.012;-1.648;2023-05-07T00:43:04;160.02;;;10.65;;
71108;SDS011;59614;51.012;-1.648;2023-05-07T00:45:30;81.28;;;9.73;;
71108;SDS011;59614;51.012;-1.648;2023-05-07T00:47:56;174.20;;;9.57;;
71108;SDS011;59614;51.012;-1.648;2023-05-07T00:50:24;79.47;;;8.45;;
71108;SDS011;59614;51.012;-1.648;2023-05-07T00:52:50;81.90;;;9.10;;
71108;SDS011;59614;51.012;-1.648;2023-05-07T00:55:15;23.15;;;8.38;;
71108;SDS011;59614;51.012;-1.648;2023-05-07T00:57:41;216.52;;;10.82;;
71108;SDS011;59614;51.012;-1.648;2023-05-07T01:00:08;353.00;;;14.48;;
71108;SDS011;59614;51.012;-1.648;2023-05-07T01:02:35;368.70;;;17.45;;
71108;SDS011;59614;51.012;-1.648;2023-05-07T01:05:01;167.57;;;13.10;;
71108;SDS011;59614;51.012;-1.648;2023-05-07T01:07:28;316.25;;;15.20;;
71108;SDS011;59614;51.012;-1.648;2023-05-07T01:09:54;170.48;;;12.25;;
71108;SDS011;59614;51.012;-1.648;2023-05-07T01:12:20;394.10;;;18.92;;
71108;SDS011;59614;51.012;-1.648;2023-05-07T01:14:46;329.70;;;16.98;;
71108;SDS011;59614;51.012;-1.648;2023-05-07T01:17:13;36.17;;;8.13;;
71108;SDS011;59614;51.012;-1.648;2023-05-07T01:19:39;465.98;;;17.42;;
71108;SDS011;59614;51.012;-1.648;2023-05-07T01:22:09;71.88;;;9.02;;
71108;SDS011;59614;51.012;-1.648;2023-05-07T01:24:36;443.80;;;17.55;;
71108;SDS011;59614;51.012;-1.648;2023-05-07T01:27:02;20.85;;;8.43;;
71108;SDS011;59614;51.012;-1.648;2023-05-07T01:29:28;157.63;;;12.13;;
71108;SDS011;59614;51.012;-1.648;2023-05-07T01:31:54;79.07;;;10.40;;
71108;SDS011;59614;51.012;-1.648;2023-05-07T01:34:25;21.83;;;9.57;;
71108;SDS011;59614;51.012;-1.648;2023-05-07T01:36:52;35.75;;;10.00;;
71108;SDS011;59614;51.012;-1.648;2023-05-07T01:39:21;24.85;;;11.15;;
71108;SDS011;59614;51.012;-1.648;2023-05-07T01:41:49;24.42;;;10.77;;
71108;SDS011;59614;51.012;-1.648;2023-05-07T01:44:15;83.93;;;13.25;;
71108;SDS011;59614;51.012;-1.648;2023-05-07T01:46:41;70.45;;;13.80;;
71108;SDS011;59614;51.012;-1.648;2023-05-07T01:49:07;23.70;;;11.30;;
71108;SDS011;59614;51.012;-1.648;2023-05-07T01:51:33;84.32;;;12.90;;
71108;SDS011;59614;51.012;-1.648;2023-05-07T01:53:59;31.58;;;11.32;;
71108;SDS011;59614;51.012;-1.648;2023-05-07T01:56:25;82.10;;;13.50;;
71108;SDS011;59614;51.012;-1.648;2023-05-07T01:58:50;44.83;;;12.70;;
71108;SDS011;59614;51.012;-1.648;2023-05-07T02:01:17;24.77;;;11.00;;
71108;SDS011;59614;51.012;-1.648;2023-05-07T02:03:43;26.23;;;12.07;;
71108;SDS011;59614;51.012;-1.648;2023-05-07T02:06:09;26.63;;;11.60;;
71108;SDS011;59614;51.012;-1.648;2023-05-07T02:08:34;34.38;;;13.60;;
71108;SDS011;59614;51.012;-1.648;2023-05-07T02:11:00;68.07;;;13.57;;
71108;SDS011;59614;51.012;-1.648;2023-05-07T02:13:30;38.05;;;13.93;;
71108;SDS011;59614;51.012;-1.648;2023-05-07T02:15:58;33.33;;;13.40;;
71108;SDS011;59614;51.012;-1.648;2023-05-07T02:18:23;32.85;;;12.98;;
71108;SDS011;59614;51.012;-1.648;2023-05-07T02:20:49;30.20;;;12.77;;
71108;SDS011;59614;51.012;-1.648;2023-05-07T02:23:14;63.40;;;14.10;;
71108;SDS011;59614;51.012;-1.648;2023-05-07T02:25:39;27.60;;;12.73;;
71108;SDS011;59614;51.012;-1.648;2023-05-07T02:28:05;41.85;;;14.57;;
71108;SDS011;59614;51.012;-1.648;2023-05-07T02:30:31;31.80;;;13.55;;
71108;SDS011;59614;51.012;-1.648;2023-05-07T02:32:57;52.22;;;15.68;;
71108;SDS011;59614;51.012;-1.648;2023-05-07T02:35:23;45.72;;;15.63;;
71108;SDS011;59614;51.012;-1.648;2023-05-07T02:37:49;36.33;;;14.20;;
71108;SDS011;59614;51.012;-1.648;2023-05-07T02:40:15;47.30;;;16.67;;
71108;SDS011;59614;51.012;-1.648;2023-05-07T02:42:40;37.88;;;14.82;;
71108;SDS011;59614;51.012;-1.648;2023-05-07T02:45:06;32.72;;;14.65;;
71108;SDS011;59614;51.012;-1.648;2023-05-07T02:47:32;38.15;;;15.45;;
71108;SDS011;59614;51.012;-1.648;2023-05-07T02:49:57;47.50;;;16.58;;
71108;SDS011;59614;51.012;-1.648;2023-05-07T02:52:22;49.08;;;17.55;;
71108;SDS011;59614;51.012;-1.648;2023-05-07T02:54:48;42.45;;;16.85;;
71108;SDS011;59614;51.012;-1.648;2023-05-07T02:57:13;44.85;;;17.17;;
71108;SDS011;59614;51.012;-1.648;2023-05-07T02:59:39;38.35;;;17.55;;
71108;SDS011;59614;51.012;-1.648;2023-05-07T03:02:05;39.47;;;17.80;;
71108;SDS011;59614;51.012;-1.648;2023-05-07T03:04:30;45.75;;;17.42;;
71108;SDS011;59614;51.012;-1.648;2023-05-07T03:06:56;37.90;;;17.05;;
71108;SDS011;59614;51.012;-1.648;2023-05-07T03:09:21;49.88;;;19.63;;
71108;SDS011;59614;51.012;-1.648;2023-05-07T03:11:46;39.25;;;17.63;;
71108;SDS011;59614;51.012;-1.648;2023-05-07T03:14:12;47.67;;;18.27;;
71108;SDS011;59614;51.012;-1.648;2023-05-07T03:16:37;38.75;;;18.42;;
71108;SDS011;59614;51.012;-1.648;2023-05-07T03:19:03;38.92;;;17.65;;
71108;SDS011;59614;51.012;-1.648;2023-05-07T03:21:28;40.17;;;17.65;;
71108;SDS011;59614;51.012;-1.648;2023-05-07T03:23:55;40.83;;;17.63;;
71108;SDS011;59614;51.012;-1.648;2023-05-07T03:26:21;41.95;;;17.73;;
71108;SDS011;59614;51.012;-1.648;2023-05-07T03:28:46;42.72;;;17.92;;
71108;SDS011;59614;51.012;-1.648;2023-05-07T03:31:12;32.55;;;16.80;;
71108;SDS011;59614;51.012;-1.648;2023-05-07T03:33:39;39.05;;;17.45;;
71108;SDS011;59614;51.012;-1.648;2023-05-07T03:36:15;35.67;;;17.02;;
71108;SDS011;59614;51.012;-1.648;2023-05-07T03:38:41;36.90;;;16.50;;
71108;SDS011;59614;51.012;-1.648;2023-05-07T03:41:06;38.50;;;17.20;;
71108;SDS011;59614;51.012;-1.648;2023-05-07T03:43:32;33.53;;;15.48;;
71108;SDS011;59614;51.012;-1.648;2023-05-07T03:45:57;42.53;;;17.15;;
71108;SDS011;59614;51.012;-1.648;2023-05-07T03:48:22;41.80;;;16.35;;
71108;SDS011;59614;51.012;-1.648;2023-05-07T03:50:48;37.30;;;15.27;;
71108;SDS011;59614;51.012;-1.648;2023-05-07T03:53:13;37.95;;;15.38;;
71108;SDS011;59614;51.012;-1.648;2023-05-07T03:55:39;32.55;;;14.80;;
71108;SDS011;59614;51.012;-1.648;2023-05-07T03:58:04;35.83;;;14.73;;
71108;SDS011;59614;51.012;-1.648;2023-05-07T04:00:29;37.20;;;15.75;;
71108;SDS011;59614;51.012;-1.648;2023-05-07T04:02:58;36.45;;;15.35;;
71108;SDS011;59614;51.012;-1.648;2023-05-07T04:05:24;32.72;;;15.77;;
71108;SDS011;59614;51.012;-1.648;2023-05-07T04:07:49;39.90;;;15.60;;
71108;SDS011;59614;51.012;-1.648;2023-05-07T04:10:15;27.05;;;14.00;;
71108;SDS011;59614;51.012;-1.648;2023-05-07T04:12:40;33.67;;;16.42;;
71108;SDS011;59614;51.012;-1.648;2023-05-07T04:15:06;33.80;;;15.88;;
71108;SDS011;59614;51.012;-1.648;2023-05-07T04:17:32;38.17;;;15.32;;
71108;SDS011;59614;51.012;-1.648;2023-05-07T04:19:57;39.28;;;15.88;;
71108;SDS011;59614;51.012;-1.648;2023-05-07T04:22:22;31.58;;;15.23;;
71108;SDS011;59614;51.012;-1.648;2023-05-07T04:24:48;31.23;;;15.35;;
71108;SDS011;59614;51.012;-1.648;2023-05-07T04:27:14;33.58;;;15.95;;
71108;SDS011;59614;51.012;-1.648;2023-05-07T04:29:40;40.90;;;16.20;;
71108;SDS011;59614;51.012;-1.648;2023-05-07T04:32:07;35.28;;;16.13;;
71108;SDS011;59614;51.012;-1.648;2023-05-07T04:34:34;30.15;;;14.63;;
71108;SDS011;59614;51.012;-1.648;2023-05-07T04:36:59;31.95;;;15.80;;
71108;SDS011;59614;51.012;-1.648;2023-05-07T04:39:25;32.55;;;15.75;;
71108;SDS011;59614;51.012;-1.648;2023-05-07T04:41:50;34.42;;;15.55;;
71108;SDS011;59614;51.012;-1.648;2023-05-07T04:44:16;38.03;;;18.17;;
71108;SDS011;59614;51.012;-1.648;2023-05-07T04:46:41;39.78;;;17.10;;
71108;SDS011;59614;51.012;-1.648;2023-05-07T04:49:07;37.53;;;17.20;;
71108;SDS011;59614;51.012;-1.648;2023-05-07T04:51:32;46.88;;;18.40;;
71108;SDS011;59614;51.012;-1.648;2023-05-07T04:53:58;40.92;;;17.33;;
71108;SDS011;59614;51.012;-1.648;2023-05-07T04:56:23;43.78;;;18.90;;
71108;SDS011;59614;51.012;-1.648;2023-05-07T04:58:49;43.97;;;19.08;;
71108;SDS011;59614;51.012;-1.648;2023-05-07T05:01:14;45.65;;;19.02;;
71108;SDS011;59614;51.012;-1.648;2023-05-07T05:03:39;47.75;;;19.70;;
71108;SDS011;59614;51.012;-1.648;2023-05-07T05:06:05;47.75;;;20.70;;
71108;SDS011;59614;51.012;-1.648;2023-05-07T05:08:31;45.50;;;21.50;;
71108;SDS011;59614;51.012;-1.648;2023-05-07T05:10:56;54.50;;;22.13;;
71108;SDS011;59614;51.012;-1.648;2023-05-07T05:13:22;50.65;;;22.55;;
71108;SDS011;59614;51.012;-1.648;2023-05-07T05:15:47;53.30;;;22.48;;
71108;SDS011;59614;51.012;-1.648;2023-05-07T05:18:13;59.00;;;23.25;;
71108;SDS011;59614;51.012;-1.648;2023-05-07T05:20:38;57.42;;;23.27;;
71108;SDS011;59614;51.012;-1.648;2023-05-07T05:23:04;63.67;;;25.45;;
71108;SDS011;59614;51.012;-1.648;2023-05-07T05:25:29;55.80;;;24.75;;
71108;SDS011;59614;51.012;-1.648;2023-05-07T05:27:55;62.13;;;25.30;;
71108;SDS011;59614;51.012;-1.648;2023-05-07T05:30:20;63.20;;;26.35;;
71108;SDS011;59614;51.012;-1.648;2023-05-07T05:32:46;54.75;;;25.30;;
71108;SDS011;59614;51.012;-1.648;2023-05-07T05:35:11;61.25;;;26.58;;
71108;SDS011;59614;51.012;-1.648;2023-05-07T05:37:36;62.42;;;26.95;;
71108;SDS011;59614;51.012;-1.648;2023-05-07T05:40:02;63.00;;;27.13;;
71108;SDS011;59614;51.012;-1.648;2023-05-07T05:42:28;57.67;;;26.60;;
71108;SDS011;59614;51.012;-1.648;2023-05-07T05:44:53;59.40;;;25.75;;
71108;SDS011;59614;51.012;-1.648;2023-05-07T05:47:19;53.97;;;25.58;;
71108;SDS011;59614;51.012;-1.648;2023-05-07T05:49:44;50.70;;;24.55;;
71108;SDS011;59614;51.012;-1.648;2023-05-07T05:52:11;63.72;;;27.83;;
71108;SDS011;59614;51.012;-1.648;2023-05-07T05:54:37;62.92;;;26.80;;
71108;SDS011;59614;51.012;-1.648;2023-05-07T05:57:03;59.20;;;25.95;;
71108;SDS011;59614;51.012;-1.648;2023-05-07T05:59:29;53.47;;;24.38;;
71108;SDS011;59614;51.012;-1.648;2023-05-07T06:01:55;55.50;;;25.00;;
71108;SDS011;59614;51.012;-1.648;2023-05-07T06:04:20;51.50;;;24.58;;
71108;SDS011;59614;51.012;-1.648;2023-05-07T06:06:46;49.80;;;25.63;;
71108;SDS011;59614;51.012;-1.648;2023-05-07T06:09:11;56.15;;;25.80;;
71108;SDS011;59614;51.012;-1.648;2023-05-07T06:11:37;48.72;;;23.67;;
71108;SDS011;59614;51.012;-1.648;2023-05-07T06:14:02;52.72;;;24.52;;
71108;SDS011;59614;51.012;-1.648;2023-05-07T06:16:28;47.03;;;23.08;;
71108;SDS011;59614;51.012;-1.648;2023-05-07T06:18:53;44.30;;;23.70;;
71108;SDS011;59614;51.012;-1.648;2023-05-07T06:21:19;44.97;;;22.90;;
71108;SDS011;59614;51.012;-1.648;2023-05-07T06:23:44;47.35;;;22.95;;
71108;SDS011;59614;51.012;-1.648;2023-05-07T06:26:10;48.80;;;22.88;;
71108;SDS011;59614;51.012;-1.648;2023-05-07T06:28:35;37.08;;;20.73;;
71108;SDS011;59614;51.012;-1.648;2023-05-07T06:31:22;45.45;;;21.95;;
71108;SDS011;59614;51.012;-1.648;2023-05-07T06:33:48;50.10;;;22.55;;
71108;SDS011;59614;51.012;-1.648;2023-05-07T06:38:40;58.22;;;24.38;;
71108;SDS011;59614;51.012;-1.648;2023-05-07T06:41:05;48.90;;;23.10;;
71108;SDS011;59614;51.012;-1.648;2023-05-07T06:43:31;53.58;;;24.17;;
71108;SDS011;59614;51.012;-1.648;2023-05-07T06:45:57;51.67;;;22.88;;
71108;SDS011;59614;51.012;-1.648;2023-05-07T06:48:23;46.53;;;23.45;;
71108;SDS011;59614;51.012;-1.648;2023-05-07T06:50:48;54.10;;;23.85;;
71108;SDS011;59614;51.012;-1.648;2023-05-07T06:53:13;47.53;;;20.88;;
71108;SDS011;59614;51.012;-1.648;2023-05-07T06:55:39;47.65;;;21.00;;
71108;SDS011;59614;51.012;-1.648;2023-05-07T06:58:04;45.47;;;21.38;;
71108;SDS011;59614;51.012;-1.648;2023-05-07T07:00:30;46.20;;;21.13;;
71108;SDS011;59614;51.012;-1.648;2023-05-07T07:02:56;42.97;;;21.13;;
71108;SDS011;59614;51.012;-1.648;2023-05-07T07:05:22;44.15;;;20.83;;
71108;SDS011;59614;51.012;-1.648;2023-05-07T07:07:47;45.90;;;21.25;;
71108;SDS011;59614;51.012;-1.648;2023-05-07T07:10:20;46.90;;;21.80;;
71108;SDS011;59614;51.012;-1.648;2023-05-07T07:12:47;46.95;;;21.23;;
71108;SDS011;59614;51.012;-1.648;2023-05-07T07:15:13;43.40;;;21.60;;
71108;SDS011;59614;51.012;-1.648;2023-05-07T07:17:38;39.40;;;20.88;;
71108;SDS011;59614;51.012;-1.648;2023-05-07T07:20:04;36.20;;;18.25;;
71108;SDS011;59614;51.012;-1.648;2023-05-07T07:22:30;36.92;;;19.38;;
71108;SDS011;59614;51.012;-1.648;2023-05-07T07:24:55;42.35;;;20.40;;
71108;SDS011;59614;51.012;-1.648;2023-05-07T07:27:21;45.65;;;21.58;;
71108;SDS011;59614;51.012;-1.648;2023-05-07T07:29:46;41.80;;;21.35;;
71108;SDS011;59614;51.012;-1.648;2023-05-07T07:32:12;42.33;;;21.48;;
71108;SDS011;59614;51.012;-1.648;2023-05-07T07:34:37;41.22;;;20.50;;
71108;SDS011;59614;51.012;-1.648;2023-05-07T07:37:03;40.50;;;19.13;;
71108;SDS011;59614;51.012;-1.648;2023-05-07T07:41:57;40.83;;;19.90;;
71108;SDS011;59614;51.012;-1.648;2023-05-07T07:44:22;38.72;;;19.63;;
71108;SDS011;59614;51.012;-1.648;2023-05-07T07:46:47;38.75;;;19.67;;
71108;SDS011;59614;51.012;-1.648;2023-05-07T07:49:13;35.70;;;18.98;;
71108;SDS011;59614;51.012;-1.648;2023-05-07T07:51:39;38.90;;;19.73;;
71108;SDS011;59614;51.012;-1.648;2023-05-07T07:54:05;30.70;;;18.58;;
71108;SDS011;59614;51.012;-1.648;2023-05-07T07:56:31;29.67;;;18.45;;
71108;SDS011;59614;51.012;-1.648;2023-05-07T07:58:58;34.22;;;18.88;;
71108;SDS011;59614;51.012;-1.648;2023-05-07T08:01:24;33.15;;;19.10;;
71108;SDS011;59614;51.012;-1.648;2023-05-07T08:03:49;33.78;;;18.55;;
71108;SDS011;59614;51.012;-1.648;2023-05-07T08:06:15;37.35;;;20.77;;
71108;SDS011;59614;51.012;-1.648;2023-05-07T08:08:40;42.00;;;21.45;;
71108;SDS011;59614;51.012;-1.648;2023-05-07T08:11:06;44.67;;;21.98;;
71108;SDS011;59614;51.012;-1.648;2023-05-07T08:13:31;52.25;;;22.30;;
71108;SDS011;59614;51.012;-1.648;2023-05-07T08:15:57;37.05;;;21.75;;
71108;SDS011;59614;51.012;-1.648;2023-05-07T08:18:22;45.38;;;22.95;;
71108;SDS011;59614;51.012;-1.648;2023-05-07T08:20:49;46.25;;;23.98;;
71108;SDS011;59614;51.012;-1.648;2023-05-07T08:23:15;38.53;;;20.90;;
71108;SDS011;59614;51.012;-1.648;2023-05-07T08:25:40;41.70;;;20.45;;
71108;SDS011;59614;51.012;-1.648;2023-05-07T08:28:07;40.58;;;21.90;;
71108;SDS011;59614;51.012;-1.648;2023-05-07T08:30:33;37.60;;;20.58;;
71108;SDS011;59614;51.012;-1.648;2023-05-07T08:32:59;36.80;;;20.42;;
71108;SDS011;59614;51.012;-1.648;2023-05-07T08:35:25;40.65;;;21.48;;
71108;SDS011;59614;51.012;-1.648;2023-05-07T08:37:51;44.20;;;22.10;;
71108;SDS011;59614;51.012;-1.648;2023-05-07T08:40:17;37.53;;;19.60;;
71108;SDS011;59614;51.012;-1.648;2023-05-07T08:42:43;34.45;;;19.27;;
71108;SDS011;59614;51.012;-1.648;2023-05-07T08:45:09;35.72;;;19.60;;
71108;SDS011;59614;51.012;-1.648;2023-05-07T08:47:43;33.53;;;19.13;;
71108;SDS011;59614;51.012;-1.648;2023-05-07T08:50:10;29.63;;;18.85;;
71108;SDS011;59614;51.012;-1.648;2023-05-07T08:52:36;31.92;;;17.15;;
71108;SDS011;59614;51.012;-1.648;2023-05-07T08:55:02;26.52;;;16.83;;
71108;SDS011;59614;51.012;-1.648;2023-05-07T08:57:28;34.25;;;17.48;;
71108;SDS011;59614;51.012;-1.648;2023-05-07T08:59:53;27.40;;;16.02;;
71108;SDS011;59614;51.012;-1.648;2023-05-07T09:02:19;26.05;;;13.50;;
71108;SDS011;59614;51.012;-1.648;2023-05-07T09:04:45;22.70;;;13.65;;
71108;SDS011;59614;51.012;-1.648;2023-05-07T09:07:10;20.65;;;13.07;;
71108;SDS011;59614;51.012;-1.648;2023-05-07T09:09:36;22.05;;;12.18;;
71108;SDS011;59614;51.012;-1.648;2023-05-07T09:12:02;25.10;;;13.25;;
71108;SDS011;59614;51.012;-1.648;2023-05-07T09:14:28;15.57;;;10.85;;
71108;SDS011;59614;51.012;-1.648;2023-05-07T09:16:55;17.67;;;11.10;;
71108;SDS011;59614;51.012;-1.648;2023-05-07T09:19:24;18.70;;;11.55;;
71108;SDS011;59614;51.012;-1.648;2023-05-07T09:22:09;18.65;;;12.00;;
71108;SDS011;59614;51.012;-1.648;2023-05-07T09:24:34;16.52;;;10.20;;
71108;SDS011;59614;51.012;-1.648;2023-05-07T09:27:02;18.50;;;10.18;;
71108;SDS011;59614;51.012;-1.648;2023-05-07T09:29:28;16.60;;;10.43;;
71108;SDS011;59614;51.012;-1.648;2023-05-07T09:31:55;19.15;;;11.02;;
71108;SDS011;59614;51.012;-1.648;2023-05-07T09:34:21;17.92;;;10.57;;
71108;SDS011;59614;51.012;-1.648;2023-05-07T09:36:47;17.90;;;10.70;;
71108;SDS011;59614;51.012;-1.648;2023-05-07T09:39:13;20.13;;;11.70;;
71108;SDS011;59614;51.012;-1.648;2023-05-07T09:41:45;19.48;;;10.95;;
71108;SDS011;59614;51.012;-1.648;2023-05-07T09:44:12;18.65;;;9.45;;
71108;SDS011;59614;51.012;-1.648;2023-05-07T09:46:39;16.58;;;10.50;;
71108;SDS011;59614;51.012;-1.648;2023-05-07T09:49:07;17.50;;;10.52;;
71108;SDS011;59614;51.012;-1.648;2023-05-07T09:51:48;15.93;;;10.07;;
71108;SDS011;59614;51.012;-1.648;2023-05-07T09:54:15;17.95;;;10.25;;
71108;SDS011;59614;51.012;-1.648;2023-05-07T09:56:42;19.27;;;10.85;;
71108;SDS011;59614;51.012;-1.648;2023-05-07T09:59:13;16.25;;;10.35;;
71108;SDS011;59614;51.012;-1.648;2023-05-07T10:01:40;17.02;;;10.05;;
71108;SDS011;59614;51.012;-1.648;2023-05-07T10:04:07;43.80;;;29.70;;
71108;SDS011;59614;51.012;-1.648;2023-05-07T10:06:34;41.67;;;28.20;;
71108;SDS011;59614;51.012;-1.648;2023-05-07T10:09:00;35.58;;;23.65;;
71108;SDS011;59614;51.012;-1.648;2023-05-07T10:11:27;106.22;;;58.05;;
71108;SDS011;59614;51.012;-1.648;2023-05-07T10:13:53;83.43;;;48.05;;
71108;SDS011;59614;51.012;-1.648;2023-05-07T10:16:18;54.92;;;36.25;;
71108;SDS011;59614;51.012;-1.648;2023-05-07T10:18:45;37.35;;;24.73;;
71108;SDS011;59614;51.012;-1.648;2023-05-07T10:21:15;22.65;;;11.07;;
71108;SDS011;59614;51.012;-1.648;2023-05-07T10:23:44;15.50;;;9.57;;
71108;SDS011;59614;51.012;-1.648;2023-05-07T10:26:14;15.60;;;8.55;;
71108;SDS011;59614;51.012;-1.648;2023-05-07T10:28:41;15.40;;;8.88;;
71108;SDS011;59614;51.012;-1.648;2023-05-07T10:33:47;19.95;;;8.68;;
71108;SDS011;59614;51.012;-1.648;2023-05-07T10:36:16;15.05;;;8.55;;
71108;SDS011;59614;51.012;-1.648;2023-05-07T10:38:43;16.30;;;9.02;;
71108;SDS011;59614;51.012;-1.648;2023-05-07T10:41:09;16.63;;;9.15;;
71108;SDS011;59614;51.012;-1.648;2023-05-07T10:43:41;12.40;;;5.65;;
71108;SDS011;59614;51.012;-1.648;2023-05-07T10:46:09;12.07;;;6.50;;
71108;SDS011;59614;51.012;-1.648;2023-05-07T10:51:33;12.77;;;7.50;;
71108;SDS011;59614;51.012;-1.648;2023-05-07T10:56:35;14.20;;;7.18;;
71108;SDS011;59614;51.012;-1.648;2023-05-07T11:01:54;11.27;;;6.75;;
71108;SDS011;59614;51.012;-1.648;2023-05-07T11:04:23;12.50;;;6.75;;
71108;SDS011;59614;51.012;-1.648;2023-05-07T11:12:16;9.65;;;5.35;;
71108;SDS011;59614;51.012;-1.648;2023-05-07T11:14:42;12.25;;;5.65;;
71108;SDS011;59614;51.012;-1.648;2023-05-07T11:17:09;11.07;;;5.73;;
71108;SDS011;59614;51.012;-1.648;2023-05-07T11:19:51;11.35;;;5.68;;
71108;SDS011;59614;51.012;-1.648;2023-05-07T11:25:00;11.98;;;5.70;;
71108;SDS011;59614;51.012;-1.648;2023-05-07T11:27:30;14.02;;;5.85;;
71108;SDS011;59614;51.012;-1.648;2023-05-07T11:29:57;12.45;;;6.45;;
71108;SDS011;59614;51.012;-1.648;2023-05-07T11:32:23;13.00;;;5.72;;
71108;SDS011;59614;51.012;-1.648;2023-05-07T11:34:59;11.18;;;6.00;;
71108;SDS011;59614;51.012;-1.648;2023-05-07T11:37:25;12.50;;;6.82;;
71108;SDS011;59614;51.012;-1.648;2023-05-07T11:40:06;13.10;;;6.85;;
71108;SDS011;59614;51.012;-1.648;2023-05-07T11:42:36;13.88;;;6.55;;
71108;SDS011;59614;51.012;-1.648;2023-05-07T11:45:03;14.40;;;6.80;;
71108;SDS011;59614;51.012;-1.648;2023-05-07T11:47:32;16.02;;;6.88;;
71108;SDS011;59614;51.012;-1.648;2023-05-07T11:50:02;15.02;;;6.40;;
71108;SDS011;59614;51.012;-1.648;2023-05-07T11:52:29;15.00;;;7.00;;
71108;SDS011;59614;51.012;-1.648;2023-05-07T11:54:56;16.35;;;7.40;;
71108;SDS011;59614;51.012;-1.648;2023-05-07T11:57:23;15.38;;;8.02;;
71108;SDS011;59614;51.012;-1.648;2023-05-07T11:59:55;13.65;;;6.95;;
71108;SDS011;59614;51.012;-1.648;2023-05-07T12:02:22;12.82;;;6.97;;
71108;SDS011;59614;51.012;-1.648;2023-05-07T12:04:49;16.65;;;6.95;;
71108;SDS011;59614;51.012;-1.648;2023-05-07T12:07:15;12.85;;;6.97;;
71108;SDS011;59614;51.012;-1.648;2023-05-07T12:09:42;14.45;;;6.57;;
71108;SDS011;59614;51.012;-1.648;2023-05-07T12:12:08;12.82;;;5.93;;
71108;SDS011;59614;51.012;-1.648;2023-05-07T12:14:38;13.27;;;6.50;;
71108;SDS011;59614;51.012;-1.648;2023-05-07T12:17:08;11.45;;;6.05;;
71108;SDS011;59614;51.012;-1.648;2023-05-07T12:19:35;12.35;;;5.90;;
71108;SDS011;59614;51.012;-1.648;2023-05-07T12:22:04;8.55;;;5.15;;
71108;SDS011;59614;51.012;-1.648;2023-05-07T12:24:46;12.48;;;5.85;;
71108;SDS011;59614;51.012;-1.648;2023-05-07T12:27:21;11.65;;;5.03;;
71108;SDS011;59614;51.012;-1.648;2023-05-07T12:29:46;14.63;;;4.93;;
71108;SDS011;59614;51.012;-1.648;2023-05-07T12:32:16;11.85;;;5.07;;
71108;SDS011;59614;51.012;-1.648;2023-05-07T12:34:43;14.43;;;4.78;;
71108;SDS011;59614;51.012;-1.648;2023-05-07T12:37:09;9.80;;;3.95;;
71108;SDS011;59614;51.012;-1.648;2023-05-07T12:39:35;9.07;;;3.72;;
71108;SDS011;59614;51.012;-1.648;2023-05-07T12:42:00;9.10;;;3.53;;
71108;SDS011;59614;51.012;-1.648;2023-05-07T12:44:30;8.43;;;2.80;;
71108;SDS011;59614;51.012;-1.648;2023-05-07T12:46:56;9.05;;;3.28;;
71108;SDS011;59614;51.012;-1.648;2023-05-07T12:49:25;7.18;;;2.90;;
71108;SDS011;59614;51.012;-1.648;2023-05-07T12:51:50;13.85;;;3.25;;
71108;SDS011;59614;51.012;-1.648;2023-05-07T12:54:29;11.07;;;3.70;;
71108;SDS011;59614;51.012;-1.648;2023-05-07T12:57:01;7.53;;;2.97;;
71108;SDS011;59614;51.012;-1.648;2023-05-07T12:59:35;7.05;;;2.83;;
71108;SDS011;59614;51.012;-1.648;2023-05-07T13:02:02;8.38;;;2.88;;
71108;SDS011;59614;51.012;-1.648;2023-05-07T13:04:28;10.40;;;2.83;;
71108;SDS011;59614;51.012;-1.648;2023-05-07T13:06:53;8.88;;;3.10;;
71108;SDS011;59614;51.012;-1.648;2023-05-07T13:09:19;7.00;;;2.83;;
71108;SDS011;59614;51.012;-1.648;2023-05-07T13:11:44;9.10;;;2.58;;
71108;SDS011;59614;51.012;-1.648;2023-05-07T13:14:10;9.02;;;3.20;;
71108;SDS011;59614;51.012;-1.648;2023-05-07T13:16:35;10.80;;;3.20;;
71108;SDS011;59614;51.012;-1.648;2023-05-07T13:19:01;8.10;;;2.92;;
71108;SDS011;59614;51.012;-1.648;2023-05-07T13:21:26;6.68;;;2.60;;
71108;SDS011;59614;51.012;-1.648;2023-05-07T13:23:51;9.00;;;2.95;;
71108;SDS011;59614;51.012;-1.648;2023-05-07T13:26:17;8.05;;;2.60;;
71108;SDS011;59614;51.012;-1.648;2023-05-07T13:28:43;8.68;;;3.20;;
71108;SDS011;59614;51.012;-1.648;2023-05-07T13:31:08;7.63;;;2.90;;
71108;SDS011;59614;51.012;-1.648;2023-05-07T13:33:34;9.32;;;2.60;;
71108;SDS011;59614;51.012;-1.648;2023-05-07T13:36:00;9.27;;;3.00;;
71108;SDS011;59614;51.012;-1.648;2023-05-07T13:38:26;6.72;;;2.47;;
71108;SDS011;59614;51.012;-1.648;2023-05-07T13:40:51;9.65;;;2.75;;
71108;SDS011;59614;51.012;-1.648;2023-05-07T13:43:16;10.25;;;3.38;;
71108;SDS011;59614;51.012;-1.648;2023-05-07T13:45:43;6.95;;;2.80;;
71108;SDS011;59614;51.012;-1.648;2023-05-07T13:48:09;7.70;;;2.70;;
71108;SDS011;59614;51.012;-1.648;2023-05-07T13:50:35;5.53;;;2.30;;
71108;SDS011;59614;51.012;-1.648;2023-05-07T13:53:00;7.57;;;2.50;;
71108;SDS011;59614;51.012;-1.648;2023-05-07T13:55:28;9.57;;;2.75;;
71108;SDS011;59614;51.012;-1.648;2023-05-07T13:57:54;6.57;;;2.67;;
71108;SDS011;59614;51.012;-1.648;2023-05-07T14:00:21;7.95;;;3.00;;
71108;SDS011;59614;51.012;-1.648;2023-05-07T14:02:47;6.60;;;2.47;;
71108;SDS011;59614;51.012;-1.648;2023-05-07T14:05:13;7.22;;;2.83;;
71108;SDS011;59614;51.012;-1.648;2023-05-07T14:07:38;7.63;;;2.53;;
71108;SDS011;59614;51.012;-1.648;2023-05-07T14:10:04;6.55;;;2.70;;
71108;SDS011;59614;51.012;-1.648;2023-05-07T14:12:30;8.45;;;2.85;;
71108;SDS011;59614;51.012;-1.648;2023-05-07T14:14:56;10.00;;;2.53;;
71108;SDS011;59614;51.012;-1.648;2023-05-07T14:17:21;9.20;;;2.97;;
71108;SDS011;59614;51.012;-1.648;2023-05-07T14:19:50;7.97;;;2.63;;
71108;SDS011;59614;51.012;-1.648;2023-05-07T14:22:15;7.22;;;2.67;;
71108;SDS011;59614;51.012;-1.648;2023-05-07T14:24:41;7.72;;;2.70;;
71108;SDS011;59614;51.012;-1.648;2023-05-07T14:27:06;7.88;;;2.72;;
71108;SDS011;59614;51.012;-1.648;2023-05-07T14:29:32;8.30;;;2.80;;
71108;SDS011;59614;51.012;-1.648;2023-05-07T14:31:57;8.25;;;3.10;;
71108;SDS011;59614;51.012;-1.648;2023-05-07T14:34:23;6.40;;;2.88;;